createdAt,value
2022-10-23T00:03:38.088Z,98066.59
2022-10-23T00:08:41.302Z,98048.94
2022-10-23T00:13:44.103Z,98039.19
2022-10-23T00:18:46.954Z,98037.63
2022-10-23T00:23:49.554Z,98037.22
2022-10-23T00:28:53.647Z,98053.44
2022-10-23T00:33:56.056Z,98063.97
2022-10-23T00:38:58.441Z,98065.84
2022-10-23T00:44:09.485Z,98056.09
2022-10-23T00:54:24.357Z,98047.44
2022-10-23T00:59:28.480Z,98038.38
2022-10-23T01:04:32.033Z,98038.03
2022-10-23T01:09:44.650Z,98045.63
2022-10-23T01:15:13.900Z,98038.25
2022-10-23T01:20:25.573Z,98031.09
2022-10-23T01:25:28.242Z,98024.72
2022-10-23T01:30:33.639Z,98016.59
2022-10-23T01:35:47.149Z,98010.38
2022-10-23T01:40:49.622Z,97997.78
2022-10-23T01:45:59.490Z,97998.94
2022-10-23T01:51:06.505Z,98004.66
2022-10-23T01:56:17.936Z,97997.16
2022-10-23T02:01:26.108Z,97991.25
2022-10-23T02:06:29.036Z,97991.28
2022-10-23T02:11:37.328Z,97986.31
2022-10-23T02:16:45.518Z,97980.84
2022-10-23T02:22:21.150Z,97986.19
2022-10-23T02:27:54.511Z,97973.19
2022-10-23T02:33:02.369Z,97965.47
2022-10-23T02:38:24.737Z,97964.06
2022-10-23T02:43:39.164Z,97957.34
2022-10-23T02:49:19.048Z,97950.69
2022-10-23T02:54:50.815Z,97936.06
2022-10-23T03:00:11.583Z,97927.53
2022-10-23T03:05:23.081Z,97940.03
2022-10-23T03:10:25.890Z,97937.88
2022-10-23T03:15:28.563Z,97933.66
2022-10-23T03:20:31.003Z,97945.97
2022-10-23T03:25:33.374Z,97938.16
2022-10-23T03:30:37.577Z,97933.19
2022-10-23T03:35:40.365Z,97931.94
2022-10-23T03:40:44.012Z,97924.13
2022-10-23T03:45:48.377Z,97927.19
2022-10-23T03:50:52.536Z,97923.34
2022-10-23T03:55:55.118Z,97910.16
2022-10-23T04:00:57.776Z,97918.28
2022-10-23T04:06:00.378Z,97918.09
2022-10-23T04:11:02.891Z,97927.94
2022-10-23T04:16:11.615Z,97924.91
2022-10-23T04:21:14.211Z,97926.00
2022-10-23T04:26:16.715Z,97924.38
2022-10-23T04:31:19.336Z,97928.44
2022-10-23T04:36:21.721Z,97925.69
2022-10-23T04:41:24.209Z,97923.31
2022-10-23T04:46:26.840Z,97913.34
2022-10-23T04:51:29.380Z,97912.44
2022-10-23T04:56:44.890Z,97916.72
2022-10-23T05:01:51.960Z,97923.13
2022-10-23T05:06:54.438Z,97921.72
2022-10-23T05:12:20.119Z,97914.09
2022-10-23T05:17:28.550Z,97909.72
2022-10-23T05:22:33.942Z,97912.59
2022-10-23T05:27:36.335Z,97897.69
2022-10-23T05:32:44.975Z,97911.41
2022-10-23T05:37:49.479Z,97900.38
2022-10-23T05:43:00.302Z,97898.22
2022-10-23T05:48:33.429Z,97895.16
2022-10-23T05:53:56.051Z,97878.50
2022-10-23T05:59:07.904Z,97877.75
2022-10-23T06:04:23.624Z,97871.59
2022-10-23T06:09:45.680Z,97873.81
2022-10-23T06:14:49.493Z,97867.72
2022-10-23T06:19:52.050Z,97862.66
2022-10-23T06:24:54.573Z,97868.53
2022-10-23T06:30:01.143Z,97867.09
2022-10-23T06:35:04.379Z,97865.00
2022-10-23T06:40:08.712Z,97867.78
2022-10-23T06:45:23.073Z,97870.69
2022-10-23T06:50:43.934Z,97864.09
2022-10-23T06:55:53.033Z,97858.22
2022-10-23T07:01:01.887Z,97850.94
2022-10-23T07:06:06.950Z,97851.16
2022-10-23T07:11:11.231Z,97854.47
2022-10-23T07:16:18.691Z,97862.97
2022-10-23T07:21:21.215Z,97859.41
2022-10-23T07:26:26.203Z,97851.78
2022-10-23T07:31:29.202Z,97845.75
2022-10-23T07:36:50.085Z,97858.44
2022-10-23T07:41:53.501Z,97869.66
2022-10-23T07:46:55.929Z,97858.69
2022-10-23T07:51:58.920Z,97867.56
2022-10-23T07:57:12.023Z,97876.22
2022-10-23T08:02:20.860Z,97867.97
2022-10-23T08:07:24.875Z,97867.22
2022-10-23T08:12:31.007Z,97837.94
2022-10-23T08:17:33.585Z,97850.50
2022-10-23T08:22:47.105Z,97846.78
2022-10-23T08:27:55.503Z,97842.28
2022-10-23T08:32:58.214Z,97839.84
2022-10-23T08:38:01.370Z,97831.47
2022-10-23T08:43:11.485Z,97832.06
2022-10-23T08:48:31.527Z,97822.66
2022-10-23T08:53:56.149Z,97822.97
2022-10-23T08:59:29.366Z,97823.25
2022-10-23T09:04:32.884Z,97827.22
2022-10-23T09:09:43.922Z,97817.19
2022-10-23T09:15:14.137Z,97819.75
2022-10-23T09:20:36.415Z,97818.00
2022-10-23T09:25:41.100Z,97816.59
2022-10-23T09:30:43.996Z,97817.81
2022-10-23T09:36:19.561Z,97800.97
2022-10-23T09:41:40.428Z,97798.06
2022-10-23T09:46:45.881Z,97783.63
2022-10-23T09:52:01.509Z,97791.56
2022-10-23T09:57:22.358Z,97779.38
2022-10-23T10:02:35.868Z,97781.47
2022-10-23T10:08:39.327Z,97797.88
2022-10-23T10:14:03.530Z,97795.47
2022-10-23T10:19:41.170Z,97797.63
2022-10-23T10:25:01.843Z,97788.09
2022-10-23T10:30:19.402Z,97775.56
2022-10-23T10:35:57.727Z,97774.75
2022-10-23T10:41:40.283Z,97752.94
2022-10-23T10:47:04.153Z,97727.50
2022-10-23T10:52:19.249Z,97732.81
2022-10-23T10:57:44.240Z,97747.03
2022-10-23T11:02:55.765Z,97752.63
2022-10-23T11:08:05.560Z,97749.25
2022-10-23T11:13:33.624Z,97737.50
2022-10-23T11:18:37.638Z,97727.84
2022-10-23T11:24:29.168Z,97722.81
2022-10-23T11:29:57.240Z,97697.91
2022-10-23T11:35:14.854Z,97685.06
2022-10-23T11:40:24.482Z,97690.06
2022-10-23T11:45:28.924Z,97695.38
2022-10-23T11:50:46.272Z,97670.78
2022-10-23T11:55:58.993Z,97676.84
2022-10-23T12:01:19.754Z,97665.31
2022-10-23T12:06:27.532Z,97662.13
2022-10-23T12:12:00.679Z,97645.28
2022-10-23T12:17:19.111Z,97651.78
2022-10-23T12:22:27.228Z,97635.72
2022-10-23T12:27:49.293Z,97652.31
2022-10-23T12:33:08.525Z,97646.00
2022-10-23T12:38:17.121Z,97629.09
2022-10-23T12:43:27.623Z,97627.00
2022-10-23T12:48:30.082Z,97615.53
2022-10-23T12:53:32.760Z,97617.56
2022-10-23T12:58:36.115Z,97599.31
2022-10-23T13:03:41.340Z,97594.22
2022-10-23T13:08:48.469Z,97577.19
2022-10-23T13:14:14.837Z,97556.63
2022-10-23T13:19:27.524Z,97573.25
2022-10-23T13:24:31.282Z,97569.91
2022-10-23T13:29:35.100Z,97570.16
2022-10-23T13:34:37.724Z,97561.66
2022-10-23T13:39:40.118Z,97564.25
2022-10-23T13:44:42.875Z,97564.00
2022-10-23T13:49:45.317Z,97555.50
2022-10-23T13:54:47.833Z,97559.78
2022-10-23T13:59:50.490Z,97567.59
2022-10-23T14:04:53.015Z,97560.78
2022-10-23T14:09:55.369Z,97555.53
2022-10-23T14:14:57.771Z,97554.78
2022-10-23T14:20:00.103Z,97555.00
2022-10-23T14:25:02.541Z,97545.22
2022-10-23T14:30:05.524Z,97534.94
2022-10-23T14:35:08.337Z,97542.97
2022-10-23T14:40:11.108Z,97536.09
2022-10-23T14:45:13.468Z,97540.38
2022-10-23T14:50:16.492Z,97534.06
2022-10-23T14:55:19.374Z,97534.06
2022-10-23T15:00:22.070Z,97517.75
2022-10-23T15:05:24.438Z,97520.94
2022-10-23T15:10:26.957Z,97502.91
2022-10-23T15:15:29.434Z,97504.97
2022-10-23T15:20:32.074Z,97504.41
2022-10-23T15:25:34.436Z,97496.34
2022-10-23T15:30:43.351Z,97498.63
2022-10-23T15:35:45.864Z,97489.13
2022-10-23T15:40:48.662Z,97483.41
2022-10-23T15:45:51.178Z,97468.38
2022-10-23T15:50:55.245Z,97482.66
2022-10-23T15:55:58.870Z,97472.81
2022-10-23T16:01:08.252Z,97463.53
2022-10-23T16:06:13.463Z,97440.47
2022-10-23T16:11:28.298Z,97448.22
2022-10-23T16:16:31.796Z,97461.53
2022-10-23T16:21:36.125Z,97469.06
2022-10-23T16:26:38.889Z,97480.34
2022-10-23T16:31:41.256Z,97476.06
2022-10-23T16:36:45.063Z,97474.59
2022-10-23T16:42:01.863Z,97469.34
2022-10-23T16:47:18.196Z,97470.84
2022-10-23T16:52:20.900Z,97459.31
2022-10-23T16:57:23.274Z,97448.75
2022-10-23T17:02:25.806Z,97462.81
2022-10-23T17:07:28.241Z,97475.88
2022-10-23T17:12:30.623Z,97488.41
2022-10-23T17:17:33.007Z,97490.91
2022-10-23T17:22:36.006Z,97488.66
2022-10-23T17:27:38.459Z,97516.22
2022-10-23T17:32:41.306Z,97541.06
2022-10-23T17:37:44.045Z,97565.63
2022-10-23T17:42:46.782Z,97515.66
2022-10-23T17:47:49.632Z,97526.16
2022-10-23T17:52:52.154Z,97529.13
2022-10-23T17:57:54.632Z,97513.00
2022-10-23T18:02:57.058Z,97528.13
2022-10-23T18:07:59.904Z,97517.03
2022-10-23T18:13:02.707Z,97536.13
2022-10-23T18:18:07.921Z,97553.00
2022-10-23T18:23:10.365Z,97575.31
2022-10-23T18:28:12.740Z,97591.41
2022-10-23T18:33:15.720Z,97607.84
2022-10-23T18:38:18.353Z,97626.81
2022-10-23T18:43:42.044Z,97660.63
2022-10-23T18:48:44.214Z,97632.97
2022-10-23T18:53:47.122Z,97628.19
2022-10-23T18:58:58.196Z,97626.06
2022-10-23T19:04:02.541Z,97647.84
2022-10-23T19:09:07.800Z,97633.44
2022-10-23T19:14:10.845Z,97641.81
2022-10-23T19:19:27.018Z,97654.66
2022-10-23T19:24:39.566Z,97647.25
2022-10-23T19:29:44.873Z,97659.44
2022-10-23T19:34:47.407Z,97651.44
2022-10-23T19:39:50.024Z,97638.00
2022-10-23T19:44:54.171Z,97628.84
2022-10-23T19:49:56.689Z,97633.53
2022-10-23T19:54:59.170Z,97638.59
2022-10-23T20:00:02.032Z,97637.09
2022-10-23T20:05:12.561Z,97624.13
2022-10-23T20:10:16.189Z,97629.06
2022-10-23T20:15:18.922Z,97629.38
2022-10-23T20:20:21.628Z,97635.28
2022-10-23T20:25:24.581Z,97633.97
2022-10-23T20:30:27.081Z,97625.88
2022-10-23T20:35:29.471Z,97613.88
2022-10-23T20:40:31.898Z,97630.94
2022-10-23T20:45:34.754Z,97636.38
2022-10-23T20:50:37.978Z,97639.16
2022-10-23T20:55:43.870Z,97649.44
2022-10-23T21:00:46.384Z,97655.22
2022-10-23T21:05:49.076Z,97651.94
2022-10-23T21:10:51.624Z,97658.25
2022-10-23T21:15:54.331Z,97668.78
2022-10-23T21:20:56.760Z,97659.47
2022-10-23T21:26:02.222Z,97664.25
2022-10-23T21:31:09.876Z,97672.50
2022-10-23T21:36:19.606Z,97681.06
2022-10-23T21:41:25.161Z,97684.06
2022-10-23T21:46:29.506Z,97684.84
2022-10-23T21:51:37.452Z,97670.81
2022-10-23T21:56:50.213Z,97659.25
2022-10-23T22:01:52.765Z,97657.75
2022-10-23T22:06:55.284Z,97638.91
2022-10-23T22:11:59.826Z,97638.13
2022-10-23T22:17:02.203Z,97628.56
2022-10-23T22:22:04.586Z,97630.78
2022-10-23T22:27:06.957Z,97626.97
2022-10-23T22:32:09.339Z,97628.22
2022-10-23T22:37:12.652Z,97643.97
2022-10-23T22:42:15.030Z,97633.91
2022-10-23T22:47:17.409Z,97622.34
2022-10-23T22:52:20.185Z,97620.03
2022-10-23T22:57:22.629Z,97624.75
2022-10-23T23:02:25.008Z,97631.00
2022-10-23T23:07:28.180Z,97637.72
2022-10-23T23:12:30.518Z,97633.94
2022-10-23T23:17:32.856Z,97653.72
2022-10-23T23:22:35.349Z,97649.16
2022-10-23T23:27:40.228Z,97639.91
2022-10-23T23:32:42.920Z,97654.16
2022-10-23T23:37:45.532Z,97665.16
2022-10-23T23:42:48.077Z,97660.84
2022-10-23T23:47:50.565Z,97652.53
2022-10-23T23:52:52.900Z,97652.25
2022-10-23T23:57:55.237Z,97649.94
